Time;durP1;ratioP1;P1;durP2;ratioP2;P2;SDS_P1;SDS_P2;PMS_P1;PMS_P2;Temp;Humidity;BMP_temperature;BMP_pressure;BME280_temperature;BME280_humidity;BME280_pressure;Samples;Min_cycle;Max_cycle;Signal;HPM_P1;HPM_P2
2024/01/30 00:00:07;;;;;;;;;;;;;;;;;;341088;29;1966;-81
2024/01/30 00:00:18;;;;;;;;;;;;;;;;;;341088;29;1540;-81
2024/01/30 00:00:28;;;;;;;;;;;;;;;;;;343740;28;1541;-81
2024/01/30 00:00:38;;;;;;;;;;;;;;;;;;344241;28;1029;-81
2024/01/30 00:00:48;;;;;;;;;;;;;;;;;;343311;28;1332;-81
2024/01/30 00:00:58;;;;;;;;;;;;;;;;;;344228;28;935;-81
2024/01/30 00:01:09;;;;;;;;;;;;;;;;;;344916;28;1355;-81
2024/01/30 00:01:19;;;;;;;;;;;;;;;;;;345481;28;729;-81
2024/01/30 00:01:29;;;;;;;;;;;;;;;;;;344295;28;1545;-81
2024/01/30 00:01:39;;;;;;;;;;;;;;;;;;341080;28;1188;-81
2024/01/30 00:01:50;;;;;;;;;;;;;;;;;;341503;29;1356;-81
2024/01/30 00:02:00;;;;;;;;;;;;;;;;;;342772;28;959;-81
2024/01/30 00:02:10;;;;;;;;;;;;;;;;;;341296;29;1536;-81
2024/01/30 00:02:21;;;;;;;;;;;;;;;;;;342754;28;781;-81
2024/01/30 00:02:32;;;;;;;;;;;;;;;;;;342676;28;1486;-81
2024/01/30 00:02:43;;;;;;;;;;;;;;;;;;345295;28;1053;-81
2024/01/30 00:02:53;;;;;;;;;;;;;;;;;;346632;28;1428;-81
2024/01/30 00:03:03;;;;;;;;;;;;;;;;;;343996;28;1059;-81
2024/01/30 00:03:13;;;;;;;;;;;;;;;;;;343085;28;1610;-81
2024/01/30 00:03:24;;;;;;;;;;;;;;;;;;343923;28;1300;-81
2024/01/30 00:03:34;;;;;;;;;;;;;;;;;;344177;28;1450;-81
2024/01/30 00:03:44;;;;;;;;;;;;;;;;;;343989;28;1041;-81
2024/01/30 00:03:54;;;;;;;;;;;;;;;;;;345305;28;1522;-81
2024/01/30 00:04:04;;;;;;;;;;;;;;;;;;343963;28;1355;-81
2024/01/30 00:04:16;;;;;;;;;;;;;;;;;;342985;28;1556;-81
2024/01/30 00:04:26;;;;;;;;;;;;;;;;;;341367;28;1411;-81
2024/01/30 00:04:36;;;;;;;;;;;;;;;;;;342667;28;1460;-81
2024/01/30 00:04:47;;;;;;;;;;;;;;;;;;341682;28;1597;-81
2024/01/30 00:04:57;;;;;;;;;;;;;;;;;;344038;28;1316;-81
2024/01/30 00:05:07;;;;;;;;;;;;;;;;;;342749;28;1320;-82
2024/01/30 00:05:17;;;;;;;;;;;;;;;;;;343156;28;1045;-81
2024/01/30 00:05:27;;;;;;;;;;;;;;;;;;342714;28;1397;-81
2024/01/30 00:05:38;;;;;;;;;;;;;;;;;;344319;28;1522;-81
2024/01/30 00:05:48;;;;;;;;;;;;;;;;;;344052;28;1419;-81
2024/01/30 00:05:58;;;;;;;;;;;;;;;;;;344491;28;903;-81
2024/01/30 00:06:08;;;;;;;;;;;;;;;;;;344231;28;1375;-81
2024/01/30 00:06:20;;;;;;;;;;;;;;;;;;344473;28;966;-81
2024/01/30 00:06:31;;;;;;;;;;;;;;;;;;344929;28;1108;-81
2024/01/30 00:06:41;;;;;;;;;;;;;;;;;;345803;28;1217;-81
2024/01/30 00:06:52;;;;;;;;;;;;;;;;;;345553;28;1272;-81
2024/01/30 00:07:03;;;;;;;;;;;;;;;;;;345780;28;1021;-81
2024/01/30 00:07:13;;;;;;;;;;;;;;;;;;343766;28;1257;-81
2024/01/30 00:07:23;;;;;;;;;;;;;;;;;;344494;28;1052;-81
2024/01/30 00:07:33;;;;;;;;;;;;;;;;;;344059;28;1359;-81
2024/01/30 00:07:44;;;;;;;;;;;;;;;;;;342466;28;1316;-81
2024/01/30 00:07:54;;;;;;;;;;;;;;;;;;342699;28;1376;-81
2024/01/30 00:08:04;;;;;;;;;;;;;;;;;;343055;28;1121;-81
2024/01/30 00:08:14;;;;;;;;;;;;;;;;;;345457;28;1311;-81
2024/01/30 00:08:25;;;;;;;;;;;;;;;;;;347180;28;1017;-81
2024/01/30 00:08:35;;;;;;;;;;;;;;;;;;346444;28;1518;-81
2024/01/30 00:08:48;;;;;;;;;;;;;;;;;;347234;28;1005;-81
2024/01/30 00:08:58;;;;;;;;;;;;;;;;;;344178;28;1377;-81
2024/01/30 00:09:10;;;;;;;;;;;;;;;;;;344358;28;1351;-81
2024/01/30 00:09:20;;;;;;;;;;;;;;;;;;344548;28;1328;-81
2024/01/30 00:09:30;;;;;;;;;;;;;;;;;;344488;28;1355;-81
2024/01/30 00:09:41;;;;;;;;;;;;;;;;;;345965;28;1054;-81
2024/01/30 00:09:51;;;;;;;;;;;;;;;;;;344319;28;1343;-81
2024/01/30 00:10:01;;;;;;;;;;;;;;;;;;341552;29;939;-81
2024/01/30 00:10:11;;;;;;;;;;;;;;;;;;343047;28;1328;-81
2024/01/30 00:10:22;;;;;;;;;;;;;;;;;;341680;29;967;-81
2024/01/30 00:10:32;;;;;;;;;;;;;;;;;;342910;28;1450;-81
2024/01/30 00:10:42;;;;;;;;;;;;;;;;;;342992;28;990;-81
2024/01/30 00:10:52;;;;;;;;;;;;;;;;;;341681;29;1333;-81
2024/01/30 00:11:03;;;;;;;;;;;;;;;;;;341517;29;1407;-81
2024/01/30 00:11:13;;;;;;;;;;;;;;;;;;340647;29;1843;-81
2024/01/30 00:11:25;;;;;;;;;;;;;;;;;;341332;28;1217;-81
2024/01/30 00:11:35;;;;;;;;;;;;;;;;;;341711;29;1367;-81
2024/01/30 00:11:46;;;;;;;;;;;;;;;;;;341541;29;1273;-81
2024/01/30 00:11:56;;;;;;;;;;;;;;;;;;341595;29;1392;-81
2024/01/30 00:12:06;;;;;;;;;;;;;;;;;;341610;28;987;-81
2024/01/30 00:12:17;;;;;;;;;;;;;;;;;;341632;29;1399;-81
2024/01/30 00:12:27;;;;;;;;;;;;;;;;;;340186;29;1254;-81
2024/01/30 00:12:37;;;;;;;;;;;;;;;;;;340398;29;1376;-81
2024/01/30 00:12:47;;;;;;;;;;;;;;;;;;342856;28;1315;-81
2024/01/30 00:12:57;;;;;;;;;;;;;;;;;;342974;28;1427;-81
2024/01/30 00:13:07;;;;;;;;;;;;;;;;;;342916;28;1003;-81
2024/01/30 00:13:19;;;;;;;;;;;;;;;;;;344286;28;1521;-81
2024/01/30 00:13:29;;;;;;;;;;;;;;;;;;342778;28;1450;-81
2024/01/30 00:13:40;;;;;;;;;;;;;;;;;;345635;28;1532;-81
2024/01/30 00:13:50;;;;;;;;;;;;;;;;;;345499;28;1303;-81
2024/01/30 00:14:00;;;;;;;;;;;;;;;;;;344289;28;1452;-81
2024/01/30 00:14:10;;;;;;;;;;;;;;;;;;343705;28;1293;-81
2024/01/30 00:14:21;;;;;;;;;;;;;;;;;;343085;28;1293;-81
2024/01/30 00:14:31;;;;;;;;;;;;;;;;;;343099;28;1520;-81
2024/01/30 00:14:41;;;;;;;;;;;;;;;;;;344307;28;1304;-81
2024/01/30 00:14:52;;;;;;;;;;;;;;;;;;343567;28;1335;-81
2024/01/30 00:15:04;;;;;;;;;;;;;;;;;;344798;28;1554;-81
2024/01/30 00:15:14;;;;;;;;;;;;;;;;;;344265;28;1446;-81
2024/01/30 00:15:25;;;;;;;;;;;;;;;;;;344528;28;982;-81
2024/01/30 00:15:35;;;;;;;;;;;;;;;;;;344257;28;1224;-81
2024/01/30 00:15:45;;;;;;;;;;;;;;;;;;344450;28;950;-81
2024/01/30 00:15:55;;;;;;;;;;;;;;;;;;343255;28;1343;-81
2024/01/30 00:16:06;;;;;;;;;;;;;;;;;;344485;28;962;-81
2024/01/30 00:16:26;;;;;;;;;;;;;;;;;;344619;28;1240;-81
2024/01/30 00:16:36;;;;;;;;;;;;;;;;;;343335;28;1332;-81
2024/01/30 00:16:46;;;;;;;;;;;;;;;;;;345802;28;1175;-81
2024/01/30 00:16:56;;;;;;;;;;;;;;;;;;341357;29;1478;-81
2024/01/30 00:17:06;;;;;;;;;;;;;;;;;;340425;29;1301;-81
2024/01/30 00:17:17;;;;;;;;;;;;;;;;;;340075;29;1345;-81
2024/01/30 00:17:27;;;;;;;;;;;;;;;;;;340471;29;1192;-81
2024/01/30 00:17:37;;;;;;;;;;;;;;;;;;341338;29;1466;-81
2024/01/30 00:17:47;;;;;;;;;;;;;;;;;;341631;29;1205;-81
2024/01/30 00:17:58;;;;;;;;;;;;;;;;;;341473;29;1328;-81
2024/01/30 00:18:08;;;;;;;;;;;;;;;;;;344467;28;1188;-81
2024/01/30 00:18:18;;;;;;;;;;;;;;;;;;345466;28;1387;-81
2024/01/30 00:18:28;;;;;;;;;;;;;;;;;;345823;28;953;-81
2024/01/30 00:18:39;;;;;;;;;;;;;;;;;;344301;28;1336;-82
2024/01/30 00:18:50;;;;;;;;;;;;;;;;;;345721;28;959;-81
2024/01/30 00:19:02;;;;;;;;;;;;;;;;;;345703;28;1303;-81
2024/01/30 00:19:12;;;;;;;;;;;;;;;;;;345806;28;1057;-81
2024/01/30 00:19:22;;;;;;;;;;;;;;;;;;345575;28;1477;-81
2024/01/30 00:19:32;;;;;;;;;;;;;;;;;;344349;28;1212;-81
2024/01/30 00:19:42;;;;;;;;;;;;;;;;;;344103;28;1520;-81
2024/01/30 00:19:53;;;;;;;;;;;;;;;;;;344473;28;1041;-81
2024/01/30 00:20:05;;;;;;;;;;;;;;;;;;344245;28;1981;-81
2024/01/30 00:20:15;;;;;;;;;;;;;;;;;;342963;28;1372;-81
2024/01/30 00:20:25;;;;;;;;;;;;;;;;;;342896;28;800;-81
2024/01/30 00:20:36;;;;;;;;;;;;;;;;;;343768;28;1356;-81
2024/01/30 00:20:46;;;;;;;;;;;;;;;;;;345024;28;967;-81
2024/01/30 00:20:56;;;;;;;;;;;;;;;;;;344310;28;1340;-81
2024/01/30 00:21:06;;;;;;;;;;;;;;;;;;344116;28;1199;-81
2024/01/30 00:21:16;;;;;;;;;;;;;;;;;;345416;28;1386;-81
2024/01/30 00:21:27;;;;;;;;;;;;;;;;;;343093;28;1314;-82
2024/01/30 00:21:37;;;;;;;;;;;;;;;;;;343206;28;1395;-81
2024/01/30 00:21:47;;;;;;;;;;;;;;;;;;343853;28;1208;-81
2024/01/30 00:21:58;;;;;;;;;;;;;;;;;;344087;28;1375;-81
2024/01/30 00:22:08;;;;;;;;;;;;;;;;;;344467;28;1085;-81
2024/01/30 00:22:18;;;;;;;;;;;;;;;;;;344119;28;1330;-81
2024/01/30 00:22:30;;;;;;;;;;;;;;;;;;344505;28;978;-81
2024/01/30 00:22:40;;;;;;;;;;;;;;;;;;345388;28;1405;-81
2024/01/30 00:22:50;;;;;;;;;;;;;;;;;;345835;28;986;-81
2024/01/30 00:23:01;;;;;;;;;;;;;;;;;;345906;28;1411;-81
2024/01/30 00:23:11;;;;;;;;;;;;;;;;;;343884;28;1316;-81
2024/01/30 00:23:22;;;;;;;;;;;;;;;;;;343236;28;1370;-81
2024/01/30 00:23:32;;;;;;;;;;;;;;;;;;344474;28;1017;-81
2024/01/30 00:23:42;;;;;;;;;;;;;;;;;;344049;28;1330;-81
2024/01/30 00:23:52;;;;;;;;;;;;;;;;;;343504;28;1344;-81
2024/01/30 00:24:02;;;;;;;;;;;;;;;;;;345573;28;1336;-81
2024/01/30 00:24:13;;;;;;;;;;;;;;;;;;345648;28;1232;-81
2024/01/30 00:24:23;;;;;;;;;;;;;;;;;;343780;28;1181;-81
2024/01/30 00:24:33;;;;;;;;;;;;;;;;;;343105;28;1021;-81
2024/01/30 00:24:43;;;;;;;;;;;;;;;;;;342891;28;898;-81
2024/01/30 00:24:53;;;;;;;;;;;;;;;;;;344511;28;974;-81
2024/01/30 00:25:04;;;;;;;;;;;;;;;;;;344095;28;1307;-81
2024/01/30 00:25:14;;;;;;;;;;;;;;;;;;344240;28;1469;-81
2024/01/30 00:25:24;;;;;;;;;;;;;;;;;;346898;28;950;-81
2024/01/30 00:25:34;;;;;;;;;;;;;;;;;;344155;28;1331;-81
2024/01/30 00:25:45;;;;;;;;;;;;;;;;;;344039;28;1391;-81
2024/01/30 00:25:55;;;;;;;;;;;;;;;;;;344456;28;1665;-81
2024/01/30 00:26:06;;;;;;;;;;;;;;;;;;344725;28;1450;-81
2024/01/30 00:26:16;;;;;;;;;;;;;;;;;;345795;28;914;-81
2024/01/30 00:26:26;;;;;;;;;;;;;;;;;;342567;28;1427;-81
2024/01/30 00:26:36;;;;;;;;;;;;;;;;;;343109;28;1219;-81
2024/01/30 00:26:46;;;;;;;;;;;;;;;;;;342762;28;1654;-81
2024/01/30 00:26:57;;;;;;;;;;;;;;;;;;341817;29;1049;-81
2024/01/30 00:27:07;;;;;;;;;;;;;;;;;;341568;28;1344;-80
2024/01/30 00:27:18;;;;;;;;;;;;;;;;;;341732;28;1403;-81
2024/01/30 00:27:28;;;;;;;;;;;;;;;;;;345412;28;1378;-81
2024/01/30 00:27:38;;;;;;;;;;;;;;;;;;343083;28;1321;-81
2024/01/30 00:27:48;;;;;;;;;;;;;;;;;;343963;28;1466;-81
2024/01/30 00:27:59;;;;;;;;;;;;;;;;;;345542;28;1335;-81
2024/01/30 00:28:09;;;;;;;;;;;;;;;;;;345016;28;1556;-81
2024/01/30 00:28:19;;;;;;;;;;;;;;;;;;344305;28;1427;-81
2024/01/30 00:28:29;;;;;;;;;;;;;;;;;;344354;28;966;-81
2024/01/30 00:28:40;;;;;;;;;;;;;;;;;;342970;28;1351;-81
2024/01/30 00:28:50;;;;;;;;;;;;;;;;;;341031;28;955;-81
2024/01/30 00:29:00;;;;;;;;;;;;;;;;;;341729;29;1398;-81
2024/01/30 00:29:10;;;;;;;;;;;;;;;;;;342748;28;1510;-81
2024/01/30 00:29:22;;;;;;;;;;;;;;;;;;344357;28;1648;-81
2024/01/30 00:29:33;;;;;;;;;;;;;;;;;;344247;28;1042;-81
2024/01/30 00:29:43;;;;;;;;;;;;;;;;;;344346;28;1372;-81
2024/01/30 00:29:53;;;;;;;;;;;;;;;;;;344313;28;974;-81
2024/01/30 00:30:04;;;;;;;;;;;;;;;;;;343112;28;998;-81
2024/01/30 00:30:15;;;;;;;;;;;;;;;;;;342803;28;1002;-81
2024/01/30 00:30:25;;;;;;;;;;;;;;;;;;342560;28;1524;-82
2024/01/30 00:30:35;;;;;;;;;;;;;;;;;;342850;28;1421;-82
2024/01/30 00:30:45;;;;;;;;;;;;;;;;;;342963;28;1248;-81
2024/01/30 00:30:55;;;;;;;;;;;;;;;;;;341521;28;970;-81
2024/01/30 00:31:06;;;;;;;;;;;;;;;;;;341610;29;1340;-81
2024/01/30 00:31:16;;;;;;;;;;;;;;;;;;341578;29;1030;-81
2024/01/30 00:31:26;;;;;;;;;;;;;;;;;;343668;28;1332;-81
2024/01/30 00:31:36;;;;;;;;;;;;;;;;;;344304;28;1164;-81
2024/01/30 00:31:46;;;;;;;;;;;;;;;;;;344904;28;1378;-81
2024/01/30 00:31:57;;;;;;;;;;;;;;;;;;345777;28;998;-81
2024/01/30 00:32:07;;;;;;;;;;;;;;;;;;345546;28;1318;-81
2024/01/30 00:32:19;;;;;;;;;;;;;;;;;;341658;29;1332;-81
2024/01/30 00:32:29;;;;;;;;;;;;;;;;;;341638;29;1347;-81
2024/01/30 00:32:39;;;;;;;;;;;;;;;;;;341780;29;975;-81
2024/01/30 00:32:49;;;;;;;;;;;;;;;;;;341531;28;1325;-81
2024/01/30 00:33:00;;;;;;;;;;;;;;;;;;341795;29;982;-81
2024/01/30 00:33:10;;;;;;;;;;;;;;;;;;342799;28;1341;-81
2024/01/30 00:33:20;;;;;;;;;;;;;;;;;;344415;28;1332;-81
2024/01/30 00:33:30;;;;;;;;;;;;;;;;;;344140;28;1307;-81
2024/01/30 00:33:41;;;;;;;;;;;;;;;;;;344422;28;1045;-81
2024/01/30 00:33:51;;;;;;;;;;;;;;;;;;342638;28;1510;-81
2024/01/30 00:34:01;;;;;;;;;;;;;;;;;;342466;28;1174;-81
2024/01/30 00:34:11;;;;;;;;;;;;;;;;;;344092;28;1497;-81
2024/01/30 00:34:22;;;;;;;;;;;;;;;;;;341693;28;1236;-81
2024/01/30 00:34:32;;;;;;;;;;;;;;;;;;341354;29;1522;-81
2024/01/30 00:34:42;;;;;;;;;;;;;;;;;;341800;29;1269;-81
2024/01/30 00:34:52;;;;;;;;;;;;;;;;;;342711;28;1318;-81
2024/01/30 00:35:03;;;;;;;;;;;;;;;;;;344308;28;1323;-81
2024/01/30 00:35:13;;;;;;;;;;;;;;;;;;343839;28;1324;-81
2024/01/30 00:35:23;;;;;;;;;;;;;;;;;;344279;28;1335;-81
2024/01/30 00:35:33;;;;;;;;;;;;;;;;;;344047;28;1434;-81
2024/01/30 00:35:43;;;;;;;;;;;;;;;;;;344367;28;1336;-81
2024/01/30 00:35:54;;;;;;;;;;;;;;;;;;343696;28;978;-81
2024/01/30 00:36:05;;;;;;;;;;;;;;;;;;344282;28;1403;-81
2024/01/30 00:36:15;;;;;;;;;;;;;;;;;;342460;28;1463;-81
2024/01/30 00:36:25;;;;;;;;;;;;;;;;;;341568;29;1405;-81
2024/01/30 00:36:35;;;;;;;;;;;;;;;;;;341455;28;1352;-81
2024/01/30 00:36:45;;;;;;;;;;;;;;;;;;341728;28;1419;-81
2024/01/30 00:36:56;;;;;;;;;;;;;;;;;;341666;28;844;-81
2024/01/30 00:37:06;;;;;;;;;;;;;;;;;;342971;28;1375;-81
2024/01/30 00:37:16;;;;;;;;;;;;;;;;;;342704;28;1525;-81
2024/01/30 00:37:26;;;;;;;;;;;;;;;;;;341597;29;1357;-81
2024/01/30 00:37:37;;;;;;;;;;;;;;;;;;341599;28;1438;-81
2024/01/30 00:37:47;;;;;;;;;;;;;;;;;;342675;28;1313;-81
2024/01/30 00:37:57;;;;;;;;;;;;;;;;;;342739;28;1343;-81
2024/01/30 00:38:07;;;;;;;;;;;;;;;;;;344417;28;1426;-81
2024/01/30 00:38:18;;;;;;;;;;;;;;;;;;345512;28;1188;-81
2024/01/30 00:38:28;;;;;;;;;;;;;;;;;;343504;28;1371;-81
2024/01/30 00:38:38;;;;;;;;;;;;;;;;;;345592;28;955;-81
2024/01/30 00:38:48;;;;;;;;;;;;;;;;;;341950;28;1587;-81
2024/01/30 00:38:58;;;;;;;;;;;;;;;;;;342834;28;951;-81
2024/01/30 00:39:09;;;;;;;;;;;;;;;;;;343111;28;1276;-81
2024/01/30 00:39:19;;;;;;;;;;;;;;;;;;342824;28;1205;-81
2024/01/30 00:39:29;;;;;;;;;;;;;;;;;;342969;28;1463;-81
2024/01/30 00:39:40;;;;;;;;;;;;;;;;;;342914;28;946;-81
2024/01/30 00:39:50;;;;;;;;;;;;;;;;;;342854;28;1395;-81
2024/01/30 00:40:00;;;;;;;;;;;;;;;;;;343042;28;848;-81
2024/01/30 00:40:15;;;;;;;;;;;;;;;;;;344205;28;1351;-81
2024/01/30 00:40:25;;;;;;;;;;;;;;;;;;342676;28;1145;-81
2024/01/30 00:40:35;;;;;;;;;;;;;;;;;;342956;28;1335;-81
2024/01/30 00:40:46;;;;;;;;;;;;;;;;;;342829;28;1344;-81
2024/01/30 00:40:56;;;;;;;;;;;;;;;;;;342144;28;1522;-81
2024/01/30 00:41:07;;;;;;;;;;;;;;;;;;342865;28;1178;-81
2024/01/30 00:41:19;;;;;;;;;;;;;;;;;;342633;28;975;-81
2024/01/30 00:41:29;;;;;;;;;;;;;;;;;;341913;28;1333;-81
2024/01/30 00:41:39;;;;;;;;;;;;;;;;;;343060;28;1405;-81
2024/01/30 00:41:49;;;;;;;;;;;;;;;;;;343257;28;1209;-81
2024/01/30 00:42:00;;;;;;;;;;;;;;;;;;342992;28;1219;-81
2024/01/30 00:42:10;;;;;;;;;;;;;;;;;;343425;28;1342;-81
2024/01/30 00:42:21;;;;;;;;;;;;;;;;;;343565;28;838;-81
2024/01/30 00:42:31;;;;;;;;;;;;;;;;;;344720;28;1383;-81
2024/01/30 00:42:42;;;;;;;;;;;;;;;;;;344379;28;1030;-81
2024/01/30 00:42:52;;;;;;;;;;;;;;;;;;343885;28;1415;-81
2024/01/30 00:43:02;;;;;;;;;;;;;;;;;;342827;28;1311;-81
2024/01/30 00:43:13;;;;;;;;;;;;;;;;;;345298;28;1311;-81
2024/01/30 00:43:24;;;;;;;;;;;;;;;;;;344301;28;1387;-81
2024/01/30 00:43:35;;;;;;;;;;;;;;;;;;344112;28;1332;-81
2024/01/30 00:43:45;;;;;;;;;;;;;;;;;;345210;28;1314;-81
2024/01/30 00:43:55;;;;;;;;;;;;;;;;;;345356;28;1335;-81
2024/01/30 00:44:05;;;;;;;;;;;;;;;;;;345770;28;986;-81
2024/01/30 00:44:16;;;;;;;;;;;;;;;;;;345422;28;1608;-81
2024/01/30 00:44:26;;;;;;;;;;;;;;;;;;344343;28;1301;-81
2024/01/30 00:44:39;;;;;;;;;;;;;;;;;;344128;28;1375;-81
2024/01/30 00:44:49;;;;;;;;;;;;;;;;;;344077;28;1415;-81
2024/01/30 00:44:59;;;;;;;;;;;;;;;;;;342769;28;1716;-81
2024/01/30 00:45:14;;;;;;;;;;;;;;;;;;341589;29;1344;-81
2024/01/30 00:45:24;;;;;;;;;;;;;;;;;;341296;29;1229;-81
2024/01/30 00:45:34;;;;;;;;;;;;;;;;;;341353;29;1302;-81
2024/01/30 00:45:44;;;;;;;;;;;;;;;;;;341586;29;1027;-81
2024/01/30 00:45:55;;;;;;;;;;;;;;;;;;340189;29;1365;-81
2024/01/30 00:46:05;;;;;;;;;;;;;;;;;;341615;29;896;-81
2024/01/30 00:46:15;;;;;;;;;;;;;;;;;;341561;29;1363;-81
2024/01/30 00:46:25;;;;;;;;;;;;;;;;;;342904;28;884;-81
2024/01/30 00:46:36;;;;;;;;;;;;;;;;;;344742;28;1402;-81
2024/01/30 00:46:46;;;;;;;;;;;;;;;;;;345544;28;974;-81
2024/01/30 00:46:56;;;;;;;;;;;;;;;;;;345552;28;1413;-81
2024/01/30 00:47:06;;;;;;;;;;;;;;;;;;344192;28;1057;-81
2024/01/30 00:47:16;;;;;;;;;;;;;;;;;;344620;28;1515;-81
2024/01/30 00:47:27;;;;;;;;;;;;;;;;;;342785;28;1089;-81
2024/01/30 00:47:37;;;;;;;;;;;;;;;;;;341290;29;1388;-81
2024/01/30 00:47:47;;;;;;;;;;;;;;;;;;341383;29;1198;-81
2024/01/30 00:47:57;;;;;;;;;;;;;;;;;;343039;28;1038;-81
2024/01/30 00:48:07;;;;;;;;;;;;;;;;;;342909;28;1030;-81
2024/01/30 00:48:18;;;;;;;;;;;;;;;;;;343059;28;1399;-81
2024/01/30 00:48:28;;;;;;;;;;;;;;;;;;345507;28;1206;-81
2024/01/30 00:48:38;;;;;;;;;;;;;;;;;;344187;28;1232;-81
2024/01/30 00:48:48;;;;;;;;;;;;;;;;;;345549;28;959;-81
2024/01/30 00:48:59;;;;;;;;;;;;;;;;;;344409;28;1078;-81
2024/01/30 00:49:10;;;;;;;;;;;;;;;;;;344255;28;800;-81
2024/01/30 00:49:20;;;;;;;;;;;;;;;;;;344462;28;1485;-81
2024/01/30 00:49:30;;;;;;;;;;;;;;;;;;344177;28;1315;-81
2024/01/30 00:49:41;;;;;;;;;;;;;;;;;;342950;28;1527;-81
2024/01/30 00:49:51;;;;;;;;;;;;;;;;;;341471;29;1245;-81
2024/01/30 00:50:01;;;;;;;;;;;;;;;;;;342366;28;1455;-81
2024/01/30 00:50:11;;;;;;;;;;;;;;;;;;342303;28;1066;-81
2024/01/30 00:50:21;;;;;;;;;;;;;;;;;;343071;28;1335;-81
2024/01/30 00:50:31;;;;;;;;;;;;;;;;;;344191;28;1323;-81
2024/01/30 00:50:42;;;;;;;;;;;;;;;;;;344304;28;1521;-81
2024/01/30 00:50:52;;;;;;;;;;;;;;;;;;341466;29;1277;-81
2024/01/30 00:51:02;;;;;;;;;;;;;;;;;;344320;28;1493;-81
2024/01/30 00:51:12;;;;;;;;;;;;;;;;;;344277;28;1319;-81
2024/01/30 00:51:23;;;;;;;;;;;;;;;;;;344250;28;1288;-81
2024/01/30 00:51:33;;;;;;;;;;;;;;;;;;345570;28;1335;-81
2024/01/30 00:51:43;;;;;;;;;;;;;;;;;;344189;28;1407;-81
2024/01/30 00:51:53;;;;;;;;;;;;;;;;;;342760;28;1424;-81
2024/01/30 00:52:04;;;;;;;;;;;;;;;;;;342720;28;1492;-81
2024/01/30 00:52:14;;;;;;;;;;;;;;;;;;343129;28;1324;-81
2024/01/30 00:52:24;;;;;;;;;;;;;;;;;;344088;28;979;-81
2024/01/30 00:52:34;;;;;;;;;;;;;;;;;;344502;28;1382;-81
2024/01/30 00:52:45;;;;;;;;;;;;;;;;;;344190;28;978;-81
2024/01/30 00:52:55;;;;;;;;;;;;;;;;;;344454;28;1311;-81
2024/01/30 00:53:05;;;;;;;;;;;;;;;;;;344188;28;1018;-81
2024/01/30 00:53:15;;;;;;;;;;;;;;;;;;342916;28;1380;-81
2024/01/30 00:53:26;;;;;;;;;;;;;;;;;;339947;29;952;-81
2024/01/30 00:53:36;;;;;;;;;;;;;;;;;;341795;28;1597;-81
2024/01/30 00:53:46;;;;;;;;;;;;;;;;;;342830;28;1500;-81
2024/01/30 00:53:57;;;;;;;;;;;;;;;;;;342976;28;1457;-81
2024/01/30 00:54:07;;;;;;;;;;;;;;;;;;343996;28;1421;-81
2024/01/30 00:54:18;;;;;;;;;;;;;;;;;;342941;28;1446;-81
2024/01/30 00:54:28;;;;;;;;;;;;;;;;;;344129;28;1166;-81
2024/01/30 00:54:38;;;;;;;;;;;;;;;;;;343962;28;1429;-81
2024/01/30 00:54:48;;;;;;;;;;;;;;;;;;342986;28;931;-81
2024/01/30 00:55:02;;;;;;;;;;;;;;;;;;343088;28;1327;-81
2024/01/30 00:55:14;;;;;;;;;;;;;;;;;;342686;28;1317;-81
2024/01/30 00:55:24;;;;;;;;;;;;;;;;;;341541;28;1550;-81
2024/01/30 00:55:34;;;;;;;;;;;;;;;;;;341613;29;1038;-81
2024/01/30 00:55:45;;;;;;;;;;;;;;;;;;341386;28;1627;-81
2024/01/30 00:55:55;;;;;;;;;;;;;;;;;;341501;29;1222;-81
2024/01/30 00:56:05;;;;;;;;;;;;;;;;;;341549;29;1472;-81
2024/01/30 00:56:18;;;;;;;;;;;;;;;;;;341383;29;1427;-81
2024/01/30 00:56:28;;;;;;;;;;;;;;;;;;342784;28;1315;-81
2024/01/30 00:56:38;;;;;;;;;;;;;;;;;;342939;28;1360;-81
2024/01/30 00:56:48;;;;;;;;;;;;;;;;;;344846;28;1215;-81
2024/01/30 00:56:59;;;;;;;;;;;;;;;;;;343688;28;1422;-81
2024/01/30 00:57:09;;;;;;;;;;;;;;;;;;342981;28;951;-81
2024/01/30 00:57:19;;;;;;;;;;;;;;;;;;342738;28;1457;-81
2024/01/30 00:57:29;;;;;;;;;;;;;;;;;;340390;29;1588;-81
2024/01/30 00:57:40;;;;;;;;;;;;;;;;;;342194;28;1312;-81
2024/01/30 00:57:50;;;;;;;;;;;;;;;;;;342957;28;1387;-81
2024/01/30 00:58:00;;;;;;;;;;;;;;;;;;343404;28;1391;-81
2024/01/30 00:58:10;;;;;;;;;;;;;;;;;;343081;28;939;-81
2024/01/30 00:58:20;;;;;;;;;;;;;;;;;;341903;28;1368;-81
2024/01/30 00:58:31;;;;;;;;;;;;;;;;;;343037;28;1216;-81
2024/01/30 00:58:41;;;;;;;;;;;;;;;;;;341354;28;1502;-81
2024/01/30 00:58:51;;;;;;;;;;;;;;;;;;343009;28;1602;-81
2024/01/30 00:59:01;;;;;;;;;;;;;;;;;;342700;28;1316;-81
2024/01/30 00:59:11;;;;;;;;;;;;;;;;;;343117;28;978;-81
2024/01/30 00:59:22;;;;;;;;;;;;;;;;;;342185;28;1391;-81
2024/01/30 00:59:32;;;;;;;;;;;;;;;;;;343132;28;1038;-81
2024/01/30 00:59:42;;;;;;;;;;;;;;;;;;342161;28;1353;-81
2024/01/30 00:59:52;;;;;;;;;;;;;;;;;;341986;28;1337;-81
2024/01/30 01:00:03;;;;;;;;;;;;;;;;;;342724;28;1910;-81
2024/01/30 01:00:16;;;;;;;;;;;;;;;;;;340334;29;1266;-81
2024/01/30 01:00:31;;;;;;;;;;;;;;;;;;340075;29;1561;-82
2024/01/30 01:00:41;;;;;;;;;;;;;;;;;;341423;29;1344;-81
2024/01/30 01:00:51;;;;;;;;;;;;;;;;;;341735;29;1100;-81
2024/01/30 01:01:02;;;;;;;;;;;;;;;;;;341369;29;1324;-81
2024/01/30 01:01:13;;;;;;;;;;;;;;;;;;343062;28;1375;-81
2024/01/30 01:01:23;;;;;;;;;;;;;;;;;;342486;28;1372;-81
2024/01/30 01:01:33;;;;;;;;;;;;;;;;;;343102;28;1042;-81
2024/01/30 01:01:43;;;;;;;;;;;;;;;;;;344614;28;1250;-81
2024/01/30 01:01:54;;;;;;;;;;;;;;;;;;344396;28;989;-81
2024/01/30 01:02:04;;;;;;;;;;;;;;;;;;344155;28;1462;-81
2024/01/30 01:02:15;;;;;;;;;;;;;;;;;;344346;28;1317;-81
2024/01/30 01:02:25;;;;;;;;;;;;;;;;;;345293;28;1331;-81
2024/01/30 01:02:35;;;;;;;;;;;;;;;;;;345772;28;982;-81
2024/01/30 01:02:46;;;;;;;;;;;;;;;;;;345402;28;1371;-81
2024/01/30 01:02:56;;;;;;;;;;;;;;;;;;343017;28;1018;-81
2024/01/30 01:03:06;;;;;;;;;;;;;;;;;;342887;28;1604;-81
2024/01/30 01:03:16;;;;;;;;;;;;;;;;;;345542;28;998;-81
2024/01/30 01:03:27;;;;;;;;;;;;;;;;;;345462;28;1592;-81
2024/01/30 01:03:37;;;;;;;;;;;;;;;;;;345648;28;725;-81
2024/01/30 01:03:48;;;;;;;;;;;;;;;;;;344594;28;1319;-81
2024/01/30 01:03:58;;;;;;;;;;;;;;;;;;344005;28;832;-81
2024/01/30 01:04:08;;;;;;;;;;;;;;;;;;343823;28;1423;-81
2024/01/30 01:04:18;;;;;;;;;;;;;;;;;;342011;28;1356;-81
2024/01/30 01:04:29;;;;;;;;;;;;;;;;;;341742;29;1034;-81
2024/01/30 01:04:39;;;;;;;;;;;;;;;;;;341579;29;1057;-81
2024/01/30 01:04:49;;;;;;;;;;;;;;;;;;343399;28;1113;-81
2024/01/30 01:05:00;;;;;;;;;;;;;;;;;;342863;28;1034;-81
2024/01/30 01:05:10;;;;;;;;;;;;;;;;;;343381;28;1641;-81
2024/01/30 01:05:20;;;;;;;;;;;;;;;;;;344238;28;832;-81
2024/01/30 01:05:30;;;;;;;;;;;;;;;;;;344405;28;1042;-81
2024/01/30 01:05:41;;;;;;;;;;;;;;;;;;344153;28;852;-81
2024/01/30 01:05:51;;;;;;;;;;;;;;;;;;344362;28;1127;-81
2024/01/30 01:06:01;;;;;;;;;;;;;;;;;;344216;28;915;-81
2024/01/30 01:06:11;;;;;;;;;;;;;;;;;;344571;28;1347;-81
2024/01/30 01:06:21;;;;;;;;;;;;;;;;;;340102;29;1293;-81
2024/01/30 01:06:32;;;;;;;;;;;;;;;;;;342787;28;1137;-81
2024/01/30 01:06:43;;;;;;;;;;;;;;;;;;341516;29;959;-81
2024/01/30 01:06:54;;;;;;;;;;;;;;;;;;341635;29;999;-81
2024/01/30 01:07:04;;;;;;;;;;;;;;;;;;342820;28;974;-81
2024/01/30 01:07:14;;;;;;;;;;;;;;;;;;343090;28;994;-81
2024/01/30 01:07:25;;;;;;;;;;;;;;;;;;342878;28;952;-81
2024/01/30 01:07:35;;;;;;;;;;;;;;;;;;344468;28;796;-81
2024/01/30 01:07:47;;;;;;;;;;;;;;;;;;345427;28;1291;-81
2024/01/30 01:07:57;;;;;;;;;;;;;;;;;;345775;28;1018;-81
2024/01/30 01:08:08;;;;;;;;;;;;;;;;;;344910;28;1120;-81
2024/01/30 01:08:20;;;;;;;;;;;;;;;;;;344251;28;1339;-81
2024/01/30 01:08:30;;;;;;;;;;;;;;;;;;342759;28;1342;-81
2024/01/30 01:08:40;;;;;;;;;;;;;;;;;;344453;28;1354;-81
2024/01/30 01:08:50;;;;;;;;;;;;;;;;;;344113;28;1030;-81
2024/01/30 01:09:00;;;;;;;;;;;;;;;;;;344412;28;1278;-81
2024/01/30 01:09:11;;;;;;;;;;;;;;;;;;344207;28;979;-81
2024/01/30 01:09:22;;;;;;;;;;;;;;;;;;344450;28;975;-81
2024/01/30 01:09:32;;;;;;;;;;;;;;;;;;343926;28;1358;-81
2024/01/30 01:09:42;;;;;;;;;;;;;;;;;;344659;28;1140;-81
2024/01/30 01:09:52;;;;;;;;;;;;;;;;;;344055;28;1330;-81
2024/01/30 01:10:03;;;;;;;;;;;;;;;;;;341656;28;1228;-81
2024/01/30 01:10:14;;;;;;;;;;;;;;;;;;341487;29;986;-81
2024/01/30 01:10:24;;;;;;;;;;;;;;;;;;341710;28;978;-81
2024/01/30 01:10:34;;;;;;;;;;;;;;;;;;343765;28;1414;-81
2024/01/30 01:10:45;;;;;;;;;;;;;;;;;;344158;28;1614;-81
2024/01/30 01:10:55;;;;;;;;;;;;;;;;;;342780;28;995;-81
2024/01/30 01:11:05;;;;;;;;;;;;;;;;;;341134;29;1181;-81
2024/01/30 01:11:15;;;;;;;;;;;;;;;;;;342815;28;1030;-81
2024/01/30 01:11:25;;;;;;;;;;;;;;;;;;341455;28;1272;-81
2024/01/30 01:11:36;;;;;;;;;;;;;;;;;;341322;29;1308;-81
2024/01/30 01:11:46;;;;;;;;;;;;;;;;;;342104;28;1313;-81
2024/01/30 01:11:56;;;;;;;;;;;;;;;;;;341394;29;1514;-81
2024/01/30 01:12:06;;;;;;;;;;;;;;;;;;340208;29;1532;-81
2024/01/30 01:12:17;;;;;;;;;;;;;;;;;;341562;29;1042;-82
2024/01/30 01:12:27;;;;;;;;;;;;;;;;;;341700;29;1336;-81
2024/01/30 01:12:37;;;;;;;;;;;;;;;;;;341526;28;1702;-81
2024/01/30 01:12:47;;;;;;;;;;;;;;;;;;343474;28;1383;-81
2024/01/30 01:12:58;;;;;;;;;;;;;;;;;;343246;28;1262;-81
2024/01/30 01:13:08;;;;;;;;;;;;;;;;;;344056;28;1383;-82
2024/01/30 01:13:18;;;;;;;;;;;;;;;;;;344147;28;1188;-81
2024/01/30 01:13:28;;;;;;;;;;;;;;;;;;345410;28;1319;-81
2024/01/30 01:13:38;;;;;;;;;;;;;;;;;;344109;28;1018;-81
2024/01/30 01:13:49;;;;;;;;;;;;;;;;;;344803;28;1502;-81
2024/01/30 01:13:59;;;;;;;;;;;;;;;;;;344144;28;978;-81